sensor_id;sensor_type;location;lat;lon;timestamp;temperature;humidity
72952;HTU21D;61102;51.956;5.878;2023-03-23T00:00:00;15.19;66.02
72952;HTU21D;61102;51.956;5.878;2023-03-23T00:02:28;15.19;65.89
72952;HTU21D;61102;51.956;5.878;2023-03-23T00:04:55;15.22;65.72
72952;HTU21D;61102;51.956;5.878;2023-03-23T00:07:22;15.19;65.74
72952;HTU21D;61102;51.956;5.878;2023-03-23T00:09:54;15.19;65.80
72952;HTU21D;61102;51.956;5.878;2023-03-23T00:12:21;15.17;65.82
72952;HTU21D;61102;51.956;5.878;2023-03-23T00:15:00;15.22;65.72
72952;HTU21D;61102;51.956;5.878;2023-03-23T00:17:28;15.22;65.82
72952;HTU21D;61102;51.956;5.878;2023-03-23T00:19:54;15.24;65.53
72952;HTU21D;61102;51.956;5.878;2023-03-23T00:22:20;15.25;65.40
72952;HTU21D;61102;51.956;5.878;2023-03-23T00:24:47;15.23;65.60
72952;HTU21D;61102;51.956;5.878;2023-03-23T00:27:17;15.28;65.55
72952;HTU21D;61102;51.956;5.878;2023-03-23T00:29:43;15.29;65.57
72952;HTU21D;61102;51.956;5.878;2023-03-23T00:32:12;15.28;65.63
72952;HTU21D;61102;51.956;5.878;2023-03-23T00:34:40;15.31;65.55
72952;HTU21D;61102;51.956;5.878;2023-03-23T00:37:09;15.32;65.27
72952;HTU21D;61102;51.956;5.878;2023-03-23T00:39:35;15.31;65.33
72952;HTU21D;61102;51.956;5.878;2023-03-23T00:42:05;15.32;65.30
72952;HTU21D;61102;51.956;5.878;2023-03-23T00:44:32;15.31;65.25
72952;HTU21D;61102;51.956;5.878;2023-03-23T00:47:01;15.32;65.27
72952;HTU21D;61102;51.956;5.878;2023-03-23T00:49:27;15.32;65.36
72952;HTU21D;61102;51.956;5.878;2023-03-23T00:51:56;15.31;65.45
72952;HTU21D;61102;51.956;5.878;2023-03-23T00:54:24;15.34;65.24
72952;HTU21D;61102;51.956;5.878;2023-03-23T00:56:51;15.37;65.31
72952;HTU21D;61102;51.956;5.878;2023-03-23T00:59:17;15.34;65.35
72952;HTU21D;61102;51.956;5.878;2023-03-23T01:01:44;15.34;65.17
72952;HTU21D;61102;51.956;5.878;2023-03-23T01:04:10;15.33;65.15
72952;HTU21D;61102;51.956;5.878;2023-03-23T01:06:38;15.80;63.71
72952;HTU21D;61102;51.956;5.878;2023-03-23T01:09:11;15.42;64.68
72952;HTU21D;61102;51.956;5.878;2023-03-23T01:11:41;15.31;64.75
72952;HTU21D;61102;51.956;5.878;2023-03-23T01:14:09;15.25;64.81
72952;HTU21D;61102;51.956;5.878;2023-03-23T01:16:35;15.63;63.57
72952;HTU21D;61102;51.956;5.878;2023-03-23T01:19:01;15.28;64.59
72952;HTU21D;61102;51.956;5.878;2023-03-23T01:21:27;15.15;65.11
72952;HTU21D;61102;51.956;5.878;2023-03-23T01:23:53;15.10;64.87
72952;HTU21D;61102;51.956;5.878;2023-03-23T01:26:25;15.06;65.27
72952;HTU21D;61102;51.956;5.878;2023-03-23T01:28:52;15.04;65.22
72952;HTU21D;61102;51.956;5.878;2023-03-23T01:31:21;15.06;65.11
72952;HTU21D;61102;51.956;5.878;2023-03-23T01:33:47;15.07;65.03
72952;HTU21D;61102;51.956;5.878;2023-03-23T01:36:16;15.07;65.21
72952;HTU21D;61102;51.956;5.878;2023-03-23T01:38:46;15.10;64.99
72952;HTU21D;61102;51.956;5.878;2023-03-23T01:41:13;15.13;64.89
72952;HTU21D;61102;51.956;5.878;2023-03-23T01:44:01;15.22;64.76
72952;HTU21D;61102;51.956;5.878;2023-03-23T01:46:34;15.21;64.69
72952;HTU21D;61102;51.956;5.878;2023-03-23T01:49:09;15.23;64.64
72952;HTU21D;61102;51.956;5.878;2023-03-23T01:51:40;15.23;64.39
72952;HTU21D;61102;51.956;5.878;2023-03-23T01:54:09;15.24;64.25
72952;HTU21D;61102;51.956;5.878;2023-03-23T01:56:39;15.24;64.42
72952;HTU21D;61102;51.956;5.878;2023-03-23T01:59:08;15.25;64.09
72952;HTU21D;61102;51.956;5.878;2023-03-23T02:01:35;15.26;64.27
72952;HTU21D;61102;51.956;5.878;2023-03-23T02:04:05;15.26;64.34
72952;HTU21D;61102;51.956;5.878;2023-03-23T02:06:31;15.30;64.25
72952;HTU21D;61102;51.956;5.878;2023-03-23T02:09:11;15.32;64.40
72952;HTU21D;61102;51.956;5.878;2023-03-23T02:11:39;15.38;64.15
72952;HTU21D;61102;51.956;5.878;2023-03-23T02:14:06;15.38;64.37
72952;HTU21D;61102;51.956;5.878;2023-03-23T02:19:46;15.51;64.25
72952;HTU21D;61102;51.956;5.878;2023-03-23T02:30:52;15.51;64.27
72952;HTU21D;61102;51.956;5.878;2023-03-23T02:33:38;15.53;64.37
72952;HTU21D;61102;51.956;5.878;2023-03-23T02:36:11;15.52;64.59
72952;HTU21D;61102;51.956;5.878;2023-03-23T02:41:20;15.56;64.68
72952;HTU21D;61102;51.956;5.878;2023-03-23T02:43:48;15.59;64.60
72952;HTU21D;61102;51.956;5.878;2023-03-23T02:46:15;15.62;64.51
72952;HTU21D;61102;51.956;5.878;2023-03-23T02:48:44;15.62;64.69
72952;HTU21D;61102;51.956;5.878;2023-03-23T02:51:12;15.65;64.69
72952;HTU21D;61102;51.956;5.878;2023-03-23T02:53:41;15.67;64.59
72952;HTU21D;61102;51.956;5.878;2023-03-23T02:56:10;15.68;64.52
72952;HTU21D;61102;51.956;5.878;2023-03-23T02:58:38;15.72;64.31
72952;HTU21D;61102;51.956;5.878;2023-03-23T03:03:56;15.73;64.16
72952;HTU21D;61102;51.956;5.878;2023-03-23T03:12:03;15.76;64.13
72952;HTU21D;61102;51.956;5.878;2023-03-23T03:14:43;15.77;64.01
72952;HTU21D;61102;51.956;5.878;2023-03-23T03:17:22;15.78;63.94
72952;HTU21D;61102;51.956;5.878;2023-03-23T03:19:56;15.76;63.84
72952;HTU21D;61102;51.956;5.878;2023-03-23T03:22:25;15.76;64.00
72952;HTU21D;61102;51.956;5.878;2023-03-23T03:24:56;15.77;63.81
72952;HTU21D;61102;51.956;5.878;2023-03-23T03:27:24;15.81;63.75
72952;HTU21D;61102;51.956;5.878;2023-03-23T03:30:05;15.83;63.63
72952;HTU21D;61102;51.956;5.878;2023-03-23T03:32:43;15.87;63.55
72952;HTU21D;61102;51.956;5.878;2023-03-23T03:35:09;15.87;63.52
72952;HTU21D;61102;51.956;5.878;2023-03-23T03:37:38;15.85;63.55
72952;HTU21D;61102;51.956;5.878;2023-03-23T03:40:07;15.84;63.64
72952;HTU21D;61102;51.956;5.878;2023-03-23T03:42:42;15.86;63.67
72952;HTU21D;61102;51.956;5.878;2023-03-23T03:45:13;15.85;63.46
72952;HTU21D;61102;51.956;5.878;2023-03-23T03:47:39;15.88;63.42
72952;HTU21D;61102;51.956;5.878;2023-03-23T03:50:06;15.88;63.51
72952;HTU21D;61102;51.956;5.878;2023-03-23T03:52:33;15.90;63.22
72952;HTU21D;61102;51.956;5.878;2023-03-23T03:54:59;15.90;63.17
72952;HTU21D;61102;51.956;5.878;2023-03-23T03:57:26;15.90;63.37
72952;HTU21D;61102;51.956;5.878;2023-03-23T04:00:13;15.95;63.06
72952;HTU21D;61102;51.956;5.878;2023-03-23T04:02:46;15.90;63.22
72952;HTU21D;61102;51.956;5.878;2023-03-23T04:05:17;15.93;63.08
72952;HTU21D;61102;51.956;5.878;2023-03-23T04:07:47;15.95;62.96
72952;HTU21D;61102;51.956;5.878;2023-03-23T04:10:19;15.95;62.82
72952;HTU21D;61102;51.956;5.878;2023-03-23T04:12:49;15.98;62.78
72952;HTU21D;61102;51.956;5.878;2023-03-23T04:15:54;16.01;62.83
72952;HTU21D;61102;51.956;5.878;2023-03-23T04:18:20;16.01;62.85
72952;HTU21D;61102;51.956;5.878;2023-03-23T04:20:49;16.00;62.79
72952;HTU21D;61102;51.956;5.878;2023-03-23T04:23:19;16.02;62.68
72952;HTU21D;61102;51.956;5.878;2023-03-23T04:25:50;16.02;62.52
72952;HTU21D;61102;51.956;5.878;2023-03-23T04:28:19;16.03;62.71
72952;HTU21D;61102;51.956;5.878;2023-03-23T04:31:09;16.07;62.54
72952;HTU21D;61102;51.956;5.878;2023-03-23T04:33:36;16.07;62.14
72952;HTU21D;61102;51.956;5.878;2023-03-23T04:36:03;16.08;62.34
72952;HTU21D;61102;51.956;5.878;2023-03-23T04:38:37;16.12;62.25
72952;HTU21D;61102;51.956;5.878;2023-03-23T04:41:11;16.16;62.31
72952;HTU21D;61102;51.956;5.878;2023-03-23T04:43:54;16.19;62.13
72952;HTU21D;61102;51.956;5.878;2023-03-23T04:46:34;16.20;62.05
72952;HTU21D;61102;51.956;5.878;2023-03-23T04:49:06;16.22;62.29
72952;HTU21D;61102;51.956;5.878;2023-03-23T04:51:36;16.25;62.13
72952;HTU21D;61102;51.956;5.878;2023-03-23T04:54:15;16.26;61.57
72952;HTU21D;61102;51.956;5.878;2023-03-23T04:56:47;16.22;61.59
72952;HTU21D;61102;51.956;5.878;2023-03-23T04:59:15;16.22;61.34
72952;HTU21D;61102;51.956;5.878;2023-03-23T05:01:48;16.24;61.30
72952;HTU21D;61102;51.956;5.878;2023-03-23T05:04:17;16.22;61.26
72952;HTU21D;61102;51.956;5.878;2023-03-23T05:06:53;16.21;61.20
72952;HTU21D;61102;51.956;5.878;2023-03-23T05:09:25;16.17;60.93
72952;HTU21D;61102;51.956;5.878;2023-03-23T05:11:51;16.13;60.91
72952;HTU21D;61102;51.956;5.878;2023-03-23T05:14:17;16.12;60.94
72952;HTU21D;61102;51.956;5.878;2023-03-23T05:16:51;16.12;60.65
72952;HTU21D;61102;51.956;5.878;2023-03-23T05:19:18;16.11;60.89
72952;HTU21D;61102;51.956;5.878;2023-03-23T05:21:45;16.08;60.58
72952;HTU21D;61102;51.956;5.878;2023-03-23T05:24:12;16.11;60.93
72952;HTU21D;61102;51.956;5.878;2023-03-23T05:26:39;16.12;60.73
72952;HTU21D;61102;51.956;5.878;2023-03-23T05:29:14;16.12;60.42
72952;HTU21D;61102;51.956;5.878;2023-03-23T05:32:05;16.16;60.67
72952;HTU21D;61102;51.956;5.878;2023-03-23T05:34:34;16.14;60.70
72952;HTU21D;61102;51.956;5.878;2023-03-23T05:37:02;16.14;60.79
72952;HTU21D;61102;51.956;5.878;2023-03-23T05:39:54;16.64;58.96
72952;HTU21D;61102;51.956;5.878;2023-03-23T05:42:47;16.29;59.85
72952;HTU21D;61102;51.956;5.878;2023-03-23T05:45:18;16.17;60.40
72952;HTU21D;61102;51.956;5.878;2023-03-23T05:47:47;16.14;60.70
72952;HTU21D;61102;51.956;5.878;2023-03-23T05:50:18;16.15;60.74
72952;HTU21D;61102;51.956;5.878;2023-03-23T05:52:44;16.16;60.65
72952;HTU21D;61102;51.956;5.878;2023-03-23T05:55:13;16.16;60.82
72952;HTU21D;61102;51.956;5.878;2023-03-23T05:57:42;16.16;60.67
72952;HTU21D;61102;51.956;5.878;2023-03-23T06:00:34;16.20;60.21
72952;HTU21D;61102;51.956;5.878;2023-03-23T06:03:16;16.19;60.23
72952;HTU21D;61102;51.956;5.878;2023-03-23T06:05:57;16.19;60.79
72952;HTU21D;61102;51.956;5.878;2023-03-23T06:08:31;16.21;60.73
72952;HTU21D;61102;51.956;5.878;2023-03-23T06:10:57;16.21;60.68
72952;HTU21D;61102;51.956;5.878;2023-03-23T06:13:23;16.22;60.52
72952;HTU21D;61102;51.956;5.878;2023-03-23T06:15:57;16.24;60.86
72952;HTU21D;61102;51.956;5.878;2023-03-23T06:18:46;16.29;60.34
72952;HTU21D;61102;51.956;5.878;2023-03-23T06:21:33;16.31;60.45
72952;HTU21D;61102;51.956;5.878;2023-03-23T06:24:22;16.36;60.05
72952;HTU21D;61102;51.956;5.878;2023-03-23T06:26:48;16.35;60.38
72952;HTU21D;61102;51.956;5.878;2023-03-23T06:29:18;16.40;60.49
72952;HTU21D;61102;51.956;5.878;2023-03-23T06:31:52;16.42;60.19
72952;HTU21D;61102;51.956;5.878;2023-03-23T06:34:21;16.47;60.37
72952;HTU21D;61102;51.956;5.878;2023-03-23T06:37:06;16.50;59.83
72952;HTU21D;61102;51.956;5.878;2023-03-23T06:39:42;16.45;59.42
72952;HTU21D;61102;51.956;5.878;2023-03-23T06:42:18;16.43;59.80
72952;HTU21D;61102;51.956;5.878;2023-03-23T06:44:51;16.41;59.40
72952;HTU21D;61102;51.956;5.878;2023-03-23T06:47:17;16.43;60.05
72952;HTU21D;61102;51.956;5.878;2023-03-23T06:49:47;16.44;60.11
72952;HTU21D;61102;51.956;5.878;2023-03-23T06:52:20;16.43;59.94
72952;HTU21D;61102;51.956;5.878;2023-03-23T06:54:49;16.45;59.34
72952;HTU21D;61102;51.956;5.878;2023-03-23T06:57:15;16.45;59.67
72952;HTU21D;61102;51.956;5.878;2023-03-23T06:59:44;16.46;59.79
72952;HTU21D;61102;51.956;5.878;2023-03-23T07:02:12;16.46;59.08
72952;HTU21D;61102;51.956;5.878;2023-03-23T07:04:44;16.44;59.07
72952;HTU21D;61102;51.956;5.878;2023-03-23T07:07:22;16.46;59.38
72952;HTU21D;61102;51.956;5.878;2023-03-23T07:09:54;16.47;58.93
72952;HTU21D;61102;51.956;5.878;2023-03-23T07:12:23;16.47;59.30
72952;HTU21D;61102;51.956;5.878;2023-03-23T07:14:50;16.47;58.87
72952;HTU21D;61102;51.956;5.878;2023-03-23T07:17:16;16.47;58.99
72952;HTU21D;61102;51.956;5.878;2023-03-23T07:20:05;16.47;59.27
72952;HTU21D;61102;51.956;5.878;2023-03-23T07:22:32;16.43;58.77
72952;HTU21D;61102;51.956;5.878;2023-03-23T07:25:07;16.40;59.36
72952;HTU21D;61102;51.956;5.878;2023-03-23T07:27:45;16.39;59.48
72952;HTU21D;61102;51.956;5.878;2023-03-23T07:30:13;16.40;59.34
72952;HTU21D;61102;51.956;5.878;2023-03-23T07:32:40;16.42;59.38
72952;HTU21D;61102;51.956;5.878;2023-03-23T07:38:36;16.48;58.78
72952;HTU21D;61102;51.956;5.878;2023-03-23T07:41:03;16.50;58.95
72952;HTU21D;61102;51.956;5.878;2023-03-23T07:43:30;16.56;58.58
72952;HTU21D;61102;51.956;5.878;2023-03-23T07:46:16;16.60;58.33
72952;HTU21D;61102;51.956;5.878;2023-03-23T07:48:56;16.58;58.25
72952;HTU21D;61102;51.956;5.878;2023-03-23T07:51:29;16.56;58.41
72952;HTU21D;61102;51.956;5.878;2023-03-23T07:53:55;16.49;58.48
72952;HTU21D;61102;51.956;5.878;2023-03-23T07:56:58;16.42;58.59
72952;HTU21D;61102;51.956;5.878;2023-03-23T07:59:30;16.30;59.04
72952;HTU21D;61102;51.956;5.878;2023-03-23T08:01:59;16.18;59.41
72952;HTU21D;61102;51.956;5.878;2023-03-23T08:04:44;16.05;59.81
72952;HTU21D;61102;51.956;5.878;2023-03-23T08:07:33;15.88;60.32
72952;HTU21D;61102;51.956;5.878;2023-03-23T08:10:07;15.71;60.78
72952;HTU21D;61102;51.956;5.878;2023-03-23T08:13:09;15.66;61.09
72952;HTU21D;61102;51.956;5.878;2023-03-23T08:16:02;15.65;61.23
72952;HTU21D;61102;51.956;5.878;2023-03-23T08:18:48;15.65;61.38
72952;HTU21D;61102;51.956;5.878;2023-03-23T08:21:34;15.72;61.36
72952;HTU21D;61102;51.956;5.878;2023-03-23T08:24:25;15.76;61.43
72952;HTU21D;61102;51.956;5.878;2023-03-23T08:26:52;15.80;61.56
72952;HTU21D;61102;51.956;5.878;2023-03-23T08:29:36;15.85;61.54
72952;HTU21D;61102;51.956;5.878;2023-03-23T08:32:22;15.87;61.55
72952;HTU21D;61102;51.956;5.878;2023-03-23T08:35:08;15.90;61.59
72952;HTU21D;61102;51.956;5.878;2023-03-23T08:37:47;15.98;61.44
72952;HTU21D;61102;51.956;5.878;2023-03-23T08:40:35;16.05;61.31
72952;HTU21D;61102;51.956;5.878;2023-03-23T08:43:20;16.14;61.13
72952;HTU21D;61102;51.956;5.878;2023-03-23T08:46:10;16.28;60.85
72952;HTU21D;61102;51.956;5.878;2023-03-23T08:48:49;16.39;60.79
72952;HTU21D;61102;51.956;5.878;2023-03-23T08:51:46;16.50;60.45
72952;HTU21D;61102;51.956;5.878;2023-03-23T08:54:36;16.52;60.01
72952;HTU21D;61102;51.956;5.878;2023-03-23T08:57:17;16.52;59.86
72952;HTU21D;61102;51.956;5.878;2023-03-23T08:59:59;16.47;60.07
72952;HTU21D;61102;51.956;5.878;2023-03-23T09:02:42;16.39;59.80
72952;HTU21D;61102;51.956;5.878;2023-03-23T09:05:22;16.32;59.96
72952;HTU21D;61102;51.956;5.878;2023-03-23T09:08:02;16.35;59.84
72952;HTU21D;61102;51.956;5.878;2023-03-23T09:10:29;16.33;59.44
72952;HTU21D;61102;51.956;5.878;2023-03-23T09:12:58;16.34;59.48
72952;HTU21D;61102;51.956;5.878;2023-03-23T09:15:24;16.40;59.20
72952;HTU21D;61102;51.956;5.878;2023-03-23T09:17:51;16.46;58.82
72952;HTU21D;61102;51.956;5.878;2023-03-23T09:20:23;16.58;58.15
72952;HTU21D;61102;51.956;5.878;2023-03-23T09:22:52;16.67;57.94
72952;HTU21D;61102;51.956;5.878;2023-03-23T09:25:21;16.74;57.42
72952;HTU21D;61102;51.956;5.878;2023-03-23T09:27:52;16.73;57.12
72952;HTU21D;61102;51.956;5.878;2023-03-23T09:30:20;16.78;57.15
72952;HTU21D;61102;51.956;5.878;2023-03-23T09:32:46;16.89;56.99
72952;HTU21D;61102;51.956;5.878;2023-03-23T09:35:15;17.06;56.89
72952;HTU21D;61102;51.956;5.878;2023-03-23T09:37:44;17.25;56.53
72952;HTU21D;61102;51.956;5.878;2023-03-23T09:40:14;17.31;55.97
72952;HTU21D;61102;51.956;5.878;2023-03-23T09:42:57;17.28;55.22
72952;HTU21D;61102;51.956;5.878;2023-03-23T09:46:03;17.33;55.09
72952;HTU21D;61102;51.956;5.878;2023-03-23T09:51:16;17.49;54.98
72952;HTU21D;61102;51.956;5.878;2023-03-23T09:53:49;17.65;55.27
72952;HTU21D;61102;51.956;5.878;2023-03-23T09:56:17;17.90;54.71
72952;HTU21D;61102;51.956;5.878;2023-03-23T09:58:51;18.58;52.73
72952;HTU21D;61102;51.956;5.878;2023-03-23T10:01:33;18.42;53.87
72952;HTU21D;61102;51.956;5.878;2023-03-23T10:04:12;18.54;53.78
72952;HTU21D;61102;51.956;5.878;2023-03-23T10:06:40;18.66;52.89
72952;HTU21D;61102;51.956;5.878;2023-03-23T10:09:06;18.82;52.64
72952;HTU21D;61102;51.956;5.878;2023-03-23T10:17:26;19.10;51.49
72952;HTU21D;61102;51.956;5.878;2023-03-23T10:22:42;19.35;50.53
72952;HTU21D;61102;51.956;5.878;2023-03-23T10:27:54;19.37;49.76
72952;HTU21D;61102;51.956;5.878;2023-03-23T10:30:38;19.38;48.95
72952;HTU21D;61102;51.956;5.878;2023-03-23T10:35:48;19.69;48.66
72952;HTU21D;61102;51.956;5.878;2023-03-23T10:38:25;19.80;47.81
72952;HTU21D;61102;51.956;5.878;2023-03-23T10:40:59;19.86;48.26
72952;HTU21D;61102;51.956;5.878;2023-03-23T10:43:26;20.01;47.86
72952;HTU21D;61102;51.956;5.878;2023-03-23T10:46:02;20.07;47.28
72952;HTU21D;61102;51.956;5.878;2023-03-23T10:48:37;20.21;47.47
72952;HTU21D;61102;51.956;5.878;2023-03-23T10:51:07;20.40;47.48
72952;HTU21D;61102;51.956;5.878;2023-03-23T10:53:37;20.59;46.86
72952;HTU21D;61102;51.956;5.878;2023-03-23T10:56:04;20.72;45.97
72952;HTU21D;61102;51.956;5.878;2023-03-23T10:58:35;20.72;44.62
72952;HTU21D;61102;51.956;5.878;2023-03-23T11:01:04;20.71;45.05
72952;HTU21D;61102;51.956;5.878;2023-03-23T11:03:40;20.70;45.03
72952;HTU21D;61102;51.956;5.878;2023-03-23T11:06:09;20.64;45.24
72952;HTU21D;61102;51.956;5.878;2023-03-23T11:08:46;20.56;45.72
72952;HTU21D;61102;51.956;5.878;2023-03-23T11:11:30;20.47;45.77
72952;HTU21D;61102;51.956;5.878;2023-03-23T11:13:59;20.33;45.67
72952;HTU21D;61102;51.956;5.878;2023-03-23T11:16:32;20.32;45.81
72952;HTU21D;61102;51.956;5.878;2023-03-23T11:19:11;20.36;45.08
72952;HTU21D;61102;51.956;5.878;2023-03-23T11:21:38;20.20;44.81
72952;HTU21D;61102;51.956;5.878;2023-03-23T11:24:05;20.06;45.05
72952;HTU21D;61102;51.956;5.878;2023-03-23T11:26:33;20.04;45.02
72952;HTU21D;61102;51.956;5.878;2023-03-23T11:29:22;20.34;45.25
72952;HTU21D;61102;51.956;5.878;2023-03-23T11:31:52;20.48;44.66
72952;HTU21D;61102;51.956;5.878;2023-03-23T11:34:21;20.51;43.97
72952;HTU21D;61102;51.956;5.878;2023-03-23T11:39:19;21.16;43.46
72952;HTU21D;61102;51.956;5.878;2023-03-23T11:41:46;20.84;44.35
72952;HTU21D;61102;51.956;5.878;2023-03-23T11:44:12;20.62;44.70
72952;HTU21D;61102;51.956;5.878;2023-03-23T11:46:55;20.46;44.89
72952;HTU21D;61102;51.956;5.878;2023-03-23T11:52:03;20.26;45.66
72952;HTU21D;61102;51.956;5.878;2023-03-23T11:54:37;20.22;45.69
72952;HTU21D;61102;51.956;5.878;2023-03-23T11:57:09;20.18;46.07
72952;HTU21D;61102;51.956;5.878;2023-03-23T11:59:37;20.18;45.86
72952;HTU21D;61102;51.956;5.878;2023-03-23T12:13:27;19.33;50.85
72952;HTU21D;61102;51.956;5.878;2023-03-23T12:34:37;20.10;50.08
72952;HTU21D;61102;51.956;5.878;2023-03-23T12:42:40;20.68;49.11
72952;HTU21D;61102;51.956;5.878;2023-03-23T12:48:13;20.29;48.21
72952;HTU21D;61102;51.956;5.878;2023-03-23T12:53:34;19.94;47.14
72952;HTU21D;61102;51.956;5.878;2023-03-23T12:56:15;19.80;47.28
72952;HTU21D;61102;51.956;5.878;2023-03-23T12:58:45;19.36;48.87
72952;HTU21D;61102;51.956;5.878;2023-03-23T13:01:24;18.86;50.40
72952;HTU21D;61102;51.956;5.878;2023-03-23T13:04:01;18.34;52.14
72952;HTU21D;61102;51.956;5.878;2023-03-23T13:06:39;17.84;53.84
72952;HTU21D;61102;51.956;5.878;2023-03-23T13:09:26;17.53;54.97
72952;HTU21D;61102;51.956;5.878;2023-03-23T13:11:56;17.34;55.55
72952;HTU21D;61102;51.956;5.878;2023-03-23T13:14:47;17.24;55.99
72952;HTU21D;61102;51.956;5.878;2023-03-23T13:25:36;16.89;57.67
72952;HTU21D;61102;51.956;5.878;2023-03-23T13:28:04;17.04;57.43
72952;HTU21D;61102;51.956;5.878;2023-03-23T13:30:31;17.09;57.43
72952;HTU21D;61102;51.956;5.878;2023-03-23T13:33:10;17.31;57.40
72952;HTU21D;61102;51.956;5.878;2023-03-23T13:35:39;18.10;56.05
72952;HTU21D;61102;51.956;5.878;2023-03-23T13:38:26;19.48;53.36
72952;HTU21D;61102;51.956;5.878;2023-03-23T13:40:54;20.41;51.56
72952;HTU21D;61102;51.956;5.878;2023-03-23T13:43:30;20.60;51.31
72952;HTU21D;61102;51.956;5.878;2023-03-23T13:49:05;19.69;53.45
72952;HTU21D;61102;51.956;5.878;2023-03-23T13:57:00;18.85;55.59
72952;HTU21D;61102;51.956;5.878;2023-03-23T13:59:32;18.65;55.61
72952;HTU21D;61102;51.956;5.878;2023-03-23T14:02:31;18.52;56.16
72952;HTU21D;61102;51.956;5.878;2023-03-23T14:05:11;18.35;56.39
72952;HTU21D;61102;51.956;5.878;2023-03-23T14:07:58;18.24;56.54
72952;HTU21D;61102;51.956;5.878;2023-03-23T14:13:41;17.99;56.89
72952;HTU21D;61102;51.956;5.878;2023-03-23T14:16:21;17.85;57.22
72952;HTU21D;61102;51.956;5.878;2023-03-23T14:18:54;17.72;57.42
72952;HTU21D;61102;51.956;5.878;2023-03-23T14:21:37;17.68;57.55
72952;HTU21D;61102;51.956;5.878;2023-03-23T14:24:12;17.64;57.72
72952;HTU21D;61102;51.956;5.878;2023-03-23T14:26:40;17.61;57.74
72952;HTU21D;61102;51.956;5.878;2023-03-23T14:29:11;17.62;58.00
72952;HTU21D;61102;51.956;5.878;2023-03-23T14:31:38;17.77;57.87
72952;HTU21D;61102;51.956;5.878;2023-03-23T14:34:20;18.08;57.64
72952;HTU21D;61102;51.956;5.878;2023-03-23T14:36:47;18.25;57.29
72952;HTU21D;61102;51.956;5.878;2023-03-23T14:39:23;18.44;57.37
72952;HTU21D;61102;51.956;5.878;2023-03-23T14:41:52;18.53;57.09
72952;HTU21D;61102;51.956;5.878;2023-03-23T14:44:26;18.59;57.15
72952;HTU21D;61102;51.956;5.878;2023-03-23T14:46:54;18.63;56.82
72952;HTU21D;61102;51.956;5.878;2023-03-23T14:49:47;18.57;57.10
72952;HTU21D;61102;51.956;5.878;2023-03-23T14:52:17;18.53;56.83
72952;HTU21D;61102;51.956;5.878;2023-03-23T14:54:44;18.44;56.39
72952;HTU21D;61102;51.956;5.878;2023-03-23T14:57:40;18.48;55.94
72952;HTU21D;61102;51.956;5.878;2023-03-23T15:00:15;18.36;55.55
72952;HTU21D;61102;51.956;5.878;2023-03-23T15:02:45;18.25;55.40
72952;HTU21D;61102;51.956;5.878;2023-03-23T15:05:28;18.23;55.00
72952;HTU21D;61102;51.956;5.878;2023-03-23T15:07:58;18.19;54.66
72952;HTU21D;61102;51.956;5.878;2023-03-23T15:10:25;18.18;54.30
72952;HTU21D;61102;51.956;5.878;2023-03-23T15:12:52;18.12;54.47
72952;HTU21D;61102;51.956;5.878;2023-03-23T15:15:30;18.15;54.29
72952;HTU21D;61102;51.956;5.878;2023-03-23T15:17:58;18.17;54.04
72952;HTU21D;61102;51.956;5.878;2023-03-23T15:22:53;18.17;53.94
72952;HTU21D;61102;51.956;5.878;2023-03-23T15:25:22;18.22;53.81
72952;HTU21D;61102;51.956;5.878;2023-03-23T15:27:54;18.29;53.48
72952;HTU21D;61102;51.956;5.878;2023-03-23T15:32:51;18.43;53.28
72952;HTU21D;61102;51.956;5.878;2023-03-23T15:35:20;18.53;53.33
72952;HTU21D;61102;51.956;5.878;2023-03-23T15:37:51;18.59;53.10
72952;HTU21D;61102;51.956;5.878;2023-03-23T15:40:22;18.64;52.85
72952;HTU21D;61102;51.956;5.878;2023-03-23T15:42:50;18.57;52.97
72952;HTU21D;61102;51.956;5.878;2023-03-23T15:45:30;18.55;53.02
72952;HTU21D;61102;51.956;5.878;2023-03-23T15:48:10;18.51;53.59
72952;HTU21D;61102;51.956;5.878;2023-03-23T15:50:36;18.52;53.75
72952;HTU21D;61102;51.956;5.878;2023-03-23T15:53:27;18.59;53.99
72952;HTU21D;61102;51.956;5.878;2023-03-23T15:55:54;18.65;53.81
72952;HTU21D;61102;51.956;5.878;2023-03-23T15:58:21;18.66;53.73
72952;HTU21D;61102;51.956;5.878;2023-03-23T16:00:48;18.69;53.59
72952;HTU21D;61102;51.956;5.878;2023-03-23T16:03:28;18.79;53.74
72952;HTU21D;61102;51.956;5.878;2023-03-23T16:05:56;18.79;53.47
72952;HTU21D;61102;51.956;5.878;2023-03-23T16:08:25;18.77;53.46
72952;HTU21D;61102;51.956;5.878;2023-03-23T16:10:51;18.79;53.68
72952;HTU21D;61102;51.956;5.878;2023-03-23T16:13:17;18.82;53.72
72952;HTU21D;61102;51.956;5.878;2023-03-23T16:15:45;18.80;53.51
72952;HTU21D;61102;51.956;5.878;2023-03-23T16:18:20;18.83;53.14
72952;HTU21D;61102;51.956;5.878;2023-03-23T16:20:47;18.85;52.85
72952;HTU21D;61102;51.956;5.878;2023-03-23T16:23:14;18.88;52.26
72952;HTU21D;61102;51.956;5.878;2023-03-23T16:25:40;18.94;52.22
72952;HTU21D;61102;51.956;5.878;2023-03-23T16:28:11;18.97;51.95
72952;HTU21D;61102;51.956;5.878;2023-03-23T16:30:37;18.95;51.12
72952;HTU21D;61102;51.956;5.878;2023-03-23T16:33:04;18.92;51.53
72952;HTU21D;61102;51.956;5.878;2023-03-23T16:35:30;18.82;51.70
72952;HTU21D;61102;51.956;5.878;2023-03-23T16:37:56;18.72;51.89
72952;HTU21D;61102;51.956;5.878;2023-03-23T16:40:23;18.63;51.99
72952;HTU21D;61102;51.956;5.878;2023-03-23T16:42:49;18.51;52.23
72952;HTU21D;61102;51.956;5.878;2023-03-23T16:45:16;18.40;52.41
72952;HTU21D;61102;51.956;5.878;2023-03-23T16:47:42;18.32;52.47
72952;HTU21D;61102;51.956;5.878;2023-03-23T16:50:12;18.22;52.49
72952;HTU21D;61102;51.956;5.878;2023-03-23T16:52:43;18.20;52.65
72952;HTU21D;61102;51.956;5.878;2023-03-23T16:55:10;18.15;52.67
72952;HTU21D;61102;51.956;5.878;2023-03-23T16:57:37;18.15;52.67
72952;HTU21D;61102;51.956;5.878;2023-03-23T17:00:06;18.10;52.65
72952;HTU21D;61102;51.956;5.878;2023-03-23T17:02:34;18.09;52.82
72952;HTU21D;61102;51.956;5.878;2023-03-23T17:05:01;18.07;52.81
72952;HTU21D;61102;51.956;5.878;2023-03-23T17:07:27;18.05;52.75
72952;HTU21D;61102;51.956;5.878;2023-03-23T17:09:53;18.02;52.98
72952;HTU21D;61102;51.956;5.878;2023-03-23T17:12:19;18.00;53.04
72952;HTU21D;61102;51.956;5.878;2023-03-23T17:14:45;18.00;53.18
72952;HTU21D;61102;51.956;5.878;2023-03-23T17:17:12;17.98;53.42
72952;HTU21D;61102;51.956;5.878;2023-03-23T17:19:38;17.94;53.51
72952;HTU21D;61102;51.956;5.878;2023-03-23T17:22:04;17.91;53.64
72952;HTU21D;61102;51.956;5.878;2023-03-23T17:24:30;17.89;53.78
72952;HTU21D;61102;51.956;5.878;2023-03-23T17:26:56;17.88;53.89
72952;HTU21D;61102;51.956;5.878;2023-03-23T17:29:25;17.83;53.97
72952;HTU21D;61102;51.956;5.878;2023-03-23T17:31:51;17.82;54.04
72952;HTU21D;61102;51.956;5.878;2023-03-23T17:34:18;17.79;54.22
72952;HTU21D;61102;51.956;5.878;2023-03-23T17:36:44;17.76;54.24
72952;HTU21D;61102;51.956;5.878;2023-03-23T17:39:10;17.73;54.31
72952;HTU21D;61102;51.956;5.878;2023-03-23T17:41:36;17.70;54.45